createdAt,value
2019-01-18T00:00:13.010Z,1006.10
2019-01-18T00:01:12.999Z,1006.25
2019-01-18T00:02:13.031Z,1006.22
2019-01-18T00:03:13.003Z,1006.25
2019-01-18T00:04:12.965Z,1006.23
2019-01-18T00:05:12.956Z,1006.23
2019-01-18T00:06:13.010Z,1006.23
2019-01-18T00:07:12.962Z,1006.24
2019-01-18T00:08:12.917Z,1006.25
2019-01-18T00:09:12.907Z,1006.26
2019-01-18T00:10:12.897Z,1006.23
2019-01-18T00:11:12.885Z,1006.26
2019-01-18T00:12:12.878Z,1006.25
2019-01-18T00:13:12.881Z,1006.24
2019-01-18T00:14:12.854Z,1006.24
2019-01-18T00:15:12.841Z,1006.26
2019-01-18T00:16:12.832Z,1006.39
2019-01-18T00:17:12.823Z,1006.34
2019-01-18T00:18:12.828Z,1006.43
2019-01-18T00:19:12.798Z,1006.45
2019-01-18T00:20:12.791Z,1006.43
2019-01-18T00:21:12.774Z,1006.46
2019-01-18T00:22:12.762Z,1006.49
2019-01-18T00:23:12.771Z,1006.51
2019-01-18T00:24:12.739Z,1006.55
2019-01-18T00:25:12.731Z,1006.60
2019-01-18T00:26:12.718Z,1006.59
2019-01-18T00:27:12.716Z,1006.55
2019-01-18T00:28:12.716Z,1006.56
2019-01-18T00:29:12.686Z,1006.54
2019-01-18T00:30:12.677Z,1006.55
2019-01-18T00:31:12.665Z,1006.62
2019-01-18T00:32:12.697Z,1006.61
2019-01-18T00:33:12.664Z,1006.60
2019-01-18T00:34:12.636Z,1006.63
2019-01-18T00:35:12.619Z,1006.69
2019-01-18T00:36:12.609Z,1006.67
2019-01-18T00:37:12.595Z,1006.70
2019-01-18T00:38:12.620Z,1006.66
2019-01-18T00:39:12.575Z,1006.67
2019-01-18T00:40:12.563Z,1006.72
2019-01-18T00:41:12.551Z,1006.78
2019-01-18T00:42:12.544Z,1006.77
2019-01-18T00:43:12.528Z,1006.82
2019-01-18T00:44:12.539Z,1006.80
2019-01-18T00:45:12.507Z,1006.78
2019-01-18T00:46:12.495Z,1006.83
2019-01-18T00:47:12.485Z,1006.79
2019-01-18T00:48:12.473Z,1006.80
2019-01-18T00:49:12.485Z,1006.78
2019-01-18T00:50:12.452Z,1006.83
2019-01-18T00:51:12.448Z,1006.82
2019-01-18T00:52:12.437Z,1006.82
2019-01-18T00:53:12.491Z,1006.85
2019-01-18T00:54:12.427Z,1006.87
2019-01-18T00:55:12.395Z,1006.88
2019-01-18T00:56:12.390Z,1006.89
2019-01-18T00:57:12.374Z,1006.94
2019-01-18T00:58:12.363Z,1006.92
2019-01-18T00:59:12.371Z,1006.94
2019-01-18T01:00:12.345Z,1006.99
2019-01-18T01:01:12.372Z,1006.96
2019-01-18T01:02:12.320Z,1006.98
2019-01-18T01:03:12.306Z,1007.01
2019-01-18T01:04:12.334Z,1006.96
2019-01-18T01:05:12.313Z,1006.94
2019-01-18T01:06:12.280Z,1006.98
2019-01-18T01:07:12.262Z,1006.96
2019-01-18T01:08:12.251Z,1007.01
2019-01-18T01:09:12.241Z,1007.03
2019-01-18T01:10:12.269Z,1007.09
2019-01-18T01:11:12.216Z,1007.10
2019-01-18T01:12:12.206Z,1007.12
2019-01-18T01:13:12.194Z,1007.10
2019-01-18T01:14:12.183Z,1007.17
2019-01-18T01:15:12.190Z,1007.15
2019-01-18T01:16:12.161Z,1007.17
2019-01-18T01:17:12.149Z,1007.17
2019-01-18T01:18:12.143Z,1007.16
2019-01-18T01:19:12.128Z,1007.21
2019-01-18T01:20:12.138Z,1007.25
2019-01-18T01:21:12.108Z,1007.19
2019-01-18T01:22:12.093Z,1007.22
2019-01-18T01:23:12.085Z,1007.24
2019-01-18T01:24:12.070Z,1007.23
2019-01-18T01:25:12.080Z,1007.33
2019-01-18T01:26:12.048Z,1007.31
2019-01-18T01:27:12.037Z,1007.27
2019-01-18T01:28:12.030Z,1007.29
2019-01-18T01:29:12.014Z,1007.31
2019-01-18T01:30:12.025Z,1007.39
2019-01-18T01:31:11.993Z,1007.35
2019-01-18T01:32:11.982Z,1007.33
2019-01-18T01:33:11.970Z,1007.33
2019-01-18T01:34:11.959Z,1007.35
2019-01-18T01:35:12.003Z,1007.41
2019-01-18T01:36:11.941Z,1007.37
2019-01-18T01:37:11.927Z,1007.35
2019-01-18T01:38:11.914Z,1007.37
2019-01-18T01:39:11.902Z,1007.37
2019-01-18T01:40:11.895Z,1007.45
2019-01-18T01:41:11.922Z,1007.44
2019-01-18T01:42:11.871Z,1007.42
2019-01-18T01:43:11.859Z,1007.45
2019-01-18T01:44:11.848Z,1007.44
2019-01-18T01:45:11.836Z,1007.54
2019-01-18T01:46:11.845Z,1007.65
2019-01-18T01:47:11.814Z,1007.64
2019-01-18T01:48:11.803Z,1007.62
2019-01-18T01:49:11.792Z,1007.62
2019-01-18T01:50:11.783Z,1007.64
2019-01-18T01:51:11.821Z,1007.70
2019-01-18T01:52:11.784Z,1007.73
2019-01-18T01:53:11.749Z,1007.77
2019-01-18T01:54:11.738Z,1007.75
2019-01-18T01:55:11.750Z,1007.75
2019-01-18T01:56:11.734Z,1007.77
2019-01-18T01:57:11.701Z,1007.78
2019-01-18T01:58:11.690Z,1007.77
2019-01-18T01:59:11.679Z,1007.81
2019-01-18T02:00:11.668Z,1007.81
2019-01-18T02:01:11.678Z,1007.79
2019-01-18T02:02:11.648Z,1007.87
2019-01-18T02:03:11.635Z,1007.83
2019-01-18T02:04:11.626Z,1007.92
2019-01-18T02:05:11.613Z,1007.91
2019-01-18T02:06:11.618Z,1007.95
2019-01-18T02:07:11.589Z,1007.88
2019-01-18T02:08:11.580Z,1007.95
2019-01-18T02:09:11.569Z,1007.93
2019-01-18T02:10:11.569Z,1007.96
2019-01-18T02:11:11.616Z,1007.96
2019-01-18T02:12:11.538Z,1007.94
2019-01-18T02:13:11.529Z,1008.00
2019-01-18T02:14:11.511Z,1007.96
2019-01-18T02:15:11.503Z,1007.93
2019-01-18T02:16:11.492Z,1007.96
2019-01-18T02:17:11.497Z,1007.97
2019-01-18T02:18:11.467Z,1008.00
2019-01-18T02:19:11.455Z,1007.96
2019-01-18T02:20:11.444Z,1008.04
2019-01-18T02:21:11.433Z,1008.04
2019-01-18T02:22:11.438Z,1008.08
2019-01-18T02:23:11.413Z,1008.06
2019-01-18T02:24:11.399Z,1008.05
2019-01-18T02:25:11.388Z,1008.08
2019-01-18T02:26:11.377Z,1008.07
2019-01-18T02:27:11.382Z,1008.05
2019-01-18T02:28:11.356Z,1008.13
2019-01-18T02:29:11.346Z,1008.13
2019-01-18T02:30:11.337Z,1008.16
2019-01-18T02:31:11.322Z,1008.23
2019-01-18T02:32:11.327Z,1008.20
2019-01-18T02:33:11.300Z,1008.25
2019-01-18T02:34:11.289Z,1008.23
2019-01-18T02:35:11.305Z,1008.21
2019-01-18T02:36:11.272Z,1008.23
2019-01-18T02:37:11.280Z,1008.27
2019-01-18T02:38:11.246Z,1008.28
2019-01-18T02:39:11.232Z,1008.28
2019-01-18T02:40:11.226Z,1008.31
2019-01-18T02:41:11.211Z,1008.34
2019-01-18T02:42:11.217Z,1008.36
2019-01-18T02:43:11.188Z,1008.37
2019-01-18T02:44:11.178Z,1008.43
2019-01-18T02:45:11.164Z,1008.51
2019-01-18T02:46:11.154Z,1008.49
2019-01-18T02:47:11.173Z,1008.53
2019-01-18T02:48:11.141Z,1008.47
2019-01-18T02:49:11.122Z,1008.57
2019-01-18T02:50:11.108Z,1008.56
2019-01-18T02:51:11.097Z,1008.58
2019-01-18T02:52:11.087Z,1008.61
2019-01-18T02:53:11.091Z,1008.61
2019-01-18T02:54:11.063Z,1008.55
2019-01-18T02:55:11.122Z,1008.65
2019-01-18T02:56:11.045Z,1008.62
2019-01-18T02:57:11.031Z,1008.68
2019-01-18T02:58:11.037Z,1008.69
2019-01-18T02:59:11.015Z,1008.72
2019-01-18T03:00:11.001Z,1008.71
2019-01-18T03:01:11.057Z,1008.73
2019-01-18T03:02:10.983Z,1008.77
2019-01-18T03:03:10.980Z,1008.75
2019-01-18T03:04:10.952Z,1008.79
2019-01-18T03:05:10.942Z,1008.82
2019-01-18T03:06:10.958Z,1008.80
2019-01-18T03:07:10.947Z,1008.80
2019-01-18T03:08:10.956Z,1008.83
2019-01-18T03:09:10.933Z,1008.83
2019-01-18T03:10:10.887Z,1008.80
2019-01-18T03:11:10.876Z,1008.85
2019-01-18T03:12:10.885Z,1008.86
2019-01-18T03:13:10.871Z,1008.87
2019-01-18T03:14:10.859Z,1008.89
2019-01-18T03:15:10.829Z,1008.93
2019-01-18T03:16:10.885Z,1008.87
2019-01-18T03:17:10.809Z,1008.85
2019-01-18T03:18:10.821Z,1008.88
2019-01-18T03:19:10.785Z,1008.87
2019-01-18T03:20:10.774Z,1008.87
2019-01-18T03:21:10.766Z,1008.84
2019-01-18T03:22:10.756Z,1008.90
2019-01-18T03:23:10.754Z,1008.88
2019-01-18T03:24:10.746Z,1008.91
2019-01-18T03:25:10.725Z,1008.92
2019-01-18T03:26:10.707Z,1008.94
2019-01-18T03:27:10.695Z,1008.95
2019-01-18T03:28:10.705Z,1009.03
2019-01-18T03:29:10.698Z,1008.97
2019-01-18T03:30:18.972Z,1009.02
2019-01-18T03:31:10.713Z,1009.05
2019-01-18T03:32:10.668Z,1009.12
2019-01-18T03:33:10.633Z,1009.10
2019-01-18T03:34:10.637Z,1009.13
2019-01-18T03:35:10.832Z,1009.12
2019-01-18T03:36:10.705Z,1009.11
2019-01-18T03:37:10.703Z,1009.16
2019-01-18T03:38:10.571Z,1009.18
2019-01-18T03:39:10.621Z,1009.17
2019-01-18T03:40:10.578Z,1009.20
2019-01-18T03:41:10.587Z,1009.16
2019-01-18T03:42:10.542Z,1009.25
2019-01-18T03:43:10.533Z,1009.24
2019-01-18T03:44:10.685Z,1009.27
2019-01-18T03:45:10.617Z,1009.25
2019-01-18T03:46:10.483Z,1009.30
2019-01-18T03:47:10.472Z,1009.31
2019-01-18T03:48:10.464Z,1009.38
2019-01-18T03:49:10.518Z,1009.37
2019-01-18T03:50:10.448Z,1009.43
2019-01-18T03:51:10.432Z,1009.47
2019-01-18T03:52:10.421Z,1009.46
2019-01-18T03:53:10.405Z,1009.48
2019-01-18T03:54:10.426Z,1009.56
2019-01-18T03:55:10.386Z,1009.53
2019-01-18T03:56:10.375Z,1009.54
2019-01-18T03:57:10.365Z,1009.57
2019-01-18T03:58:10.349Z,1009.60
2019-01-18T03:59:10.371Z,1009.58
2019-01-18T04:00:10.351Z,1009.63
2019-01-18T04:01:10.324Z,1009.64
2019-01-18T04:02:10.307Z,1009.63
2019-01-18T04:03:10.298Z,1009.67
2019-01-18T04:04:10.289Z,1009.70
2019-01-18T04:05:10.297Z,1009.69
2019-01-18T04:06:10.261Z,1009.69
2019-01-18T04:07:10.248Z,1009.73
2019-01-18T04:08:10.238Z,1009.78
2019-01-18T04:09:10.230Z,1009.75
2019-01-18T04:10:10.236Z,1009.81
2019-01-18T04:11:10.297Z,1009.80
2019-01-18T04:12:10.193Z,1009.78
2019-01-18T04:13:10.185Z,1009.87
2019-01-18T04:14:10.171Z,1009.81
2019-01-18T04:15:10.207Z,1009.85
2019-01-18T04:16:10.151Z,1009.81
2019-01-18T04:17:10.137Z,1009.84
2019-01-18T04:18:10.129Z,1009.72
2019-01-18T04:19:10.115Z,1009.72
2019-01-18T04:20:10.104Z,1009.74
2019-01-18T04:21:10.112Z,1009.75
2019-01-18T04:22:10.082Z,1009.83
2019-01-18T04:23:10.072Z,1009.79
2019-01-18T04:24:10.060Z,1009.83
2019-01-18T04:25:10.055Z,1009.83
2019-01-18T04:26:10.081Z,1009.84
2019-01-18T04:27:10.028Z,1009.87
2019-01-18T04:28:10.081Z,1009.87
2019-01-18T04:29:10.008Z,1009.88
2019-01-18T04:30:09.994Z,1009.94
2019-01-18T04:31:10.000Z,1009.92
2019-01-18T04:32:09.971Z,1009.97
2019-01-18T04:33:09.959Z,1009.99
2019-01-18T04:34:09.950Z,1009.99
2019-01-18T04:35:09.939Z,1010.05
2019-01-18T04:36:09.949Z,1010.07
2019-01-18T04:37:09.914Z,1010.08
2019-01-18T04:38:09.903Z,1010.05
2019-01-18T04:39:09.892Z,1010.12
2019-01-18T04:40:09.880Z,1010.17
2019-01-18T04:41:09.888Z,1010.14
2019-01-18T04:42:09.859Z,1010.11
2019-01-18T04:43:09.846Z,1010.15
2019-01-18T04:44:09.836Z,1010.16
2019-01-18T04:45:09.828Z,1010.18
2019-01-18T04:46:09.897Z,1010.23
2019-01-18T04:47:09.807Z,1010.21
2019-01-18T04:48:09.791Z,1010.22
2019-01-18T04:49:09.780Z,1010.18
2019-01-18T04:50:09.769Z,1010.17
2019-01-18T04:51:09.761Z,1010.20
2019-01-18T04:52:09.767Z,1010.18
2019-01-18T04:53:09.738Z,1010.21
2019-01-18T04:54:09.727Z,1010.22
2019-01-18T04:55:09.712Z,1010.22
2019-01-18T04:56:09.701Z,1010.21
2019-01-18T04:57:09.710Z,1010.27
2019-01-18T04:58:09.680Z,1010.26
2019-01-18T04:59:09.670Z,1010.30
2019-01-18T05:00:09.656Z,1010.29
2019-01-18T05:01:09.649Z,1010.33
2019-01-18T05:02:09.657Z,1010.33
2019-01-18T05:03:18.839Z,1010.36
2019-01-18T05:04:09.612Z,1010.39
2019-01-18T05:05:09.602Z,1010.39
2019-01-18T05:06:09.590Z,1010.37
2019-01-18T05:07:09.600Z,1010.41
2019-01-18T05:08:09.569Z,1010.40
2019-01-18T05:09:09.556Z,1010.39
2019-01-18T05:10:09.544Z,1010.40
2019-01-18T05:11:09.534Z,1010.41
2019-01-18T05:12:09.560Z,1010.36
2019-01-18T05:13:09.511Z,1010.39
2019-01-18T05:14:09.500Z,1010.43
2019-01-18T05:15:18.741Z,1010.40
2019-01-18T05:16:09.477Z,1010.46
2019-01-18T05:17:09.468Z,1010.47
2019-01-18T05:18:09.480Z,1010.47
2019-01-18T05:19:09.443Z,1010.46
2019-01-18T05:20:09.437Z,1010.47
2019-01-18T05:21:09.427Z,1010.47
2019-01-18T05:22:09.425Z,1010.52
2019-01-18T05:23:09.419Z,1010.56
2019-01-18T05:24:09.389Z,1010.54
2019-01-18T05:25:09.379Z,1010.56
2019-01-18T05:26:09.427Z,1010.58
2019-01-18T05:27:09.394Z,1010.58
2019-01-18T05:28:09.579Z,1010.58
2019-01-18T05:29:09.383Z,1010.61
2019-01-18T05:30:09.323Z,1010.61
2019-01-18T05:31:17.590Z,1010.60
2019-01-18T05:32:09.303Z,1010.60
2019-01-18T05:33:09.313Z,1010.65
2019-01-18T05:34:09.282Z,1010.65
2019-01-18T05:35:09.268Z,1010.64
2019-01-18T05:36:09.257Z,1010.71
2019-01-18T05:37:09.246Z,1010.69
2019-01-18T05:38:09.251Z,1010.71
2019-01-18T05:39:09.220Z,1010.72
2019-01-18T05:40:09.211Z,1010.72
2019-01-18T05:41:09.198Z,1010.74
2019-01-18T05:42:09.468Z,1010.74
2019-01-18T05:43:09.214Z,1010.76
2019-01-18T05:44:09.172Z,1010.77
2019-01-18T05:45:09.155Z,1010.80
2019-01-18T05:46:09.145Z,1010.81
2019-01-18T05:47:17.373Z,1010.83
2019-01-18T05:48:09.120Z,1010.82
2019-01-18T05:49:09.135Z,1010.78
2019-01-18T05:50:11.649Z,1010.79
2019-01-18T05:51:09.090Z,1010.81
2019-01-18T05:52:09.076Z,1010.79
2019-01-18T05:53:09.064Z,1010.82
2019-01-18T05:54:09.072Z,1010.84
2019-01-18T05:55:09.041Z,1010.83
2019-01-18T05:56:09.033Z,1010.80
2019-01-18T05:57:09.019Z,1010.82
2019-01-18T05:58:09.021Z,1010.82
2019-01-18T05:59:09.017Z,1010.83
2019-01-18T06:00:08.985Z,1010.83
2019-01-18T06:01:08.977Z,1010.80
2019-01-18T06:02:08.964Z,1010.83
2019-01-18T06:03:08.956Z,1010.79
2019-01-18T06:04:10.239Z,1010.84
2019-01-18T06:05:08.929Z,1010.81
2019-01-18T06:06:08.924Z,1010.83
2019-01-18T06:07:08.912Z,1010.89
2019-01-18T06:08:08.896Z,1010.87
2019-01-18T06:09:08.906Z,1010.90
2019-01-18T06:10:08.874Z,1010.89
2019-01-18T06:11:08.864Z,1010.88
2019-01-18T06:12:08.937Z,1010.90
2019-01-18T06:13:08.884Z,1010.91
2019-01-18T06:14:08.861Z,1010.95
2019-01-18T06:15:08.818Z,1010.97
2019-01-18T06:16:08.864Z,1010.94
2019-01-18T06:17:08.799Z,1011.03
2019-01-18T06:18:08.786Z,1011.04
2019-01-18T06:19:08.775Z,1011.03
2019-01-18T06:20:08.783Z,1011.01
2019-01-18T06:21:08.751Z,1011.02
2019-01-18T06:22:08.746Z,1011.01
2019-01-18T06:23:08.736Z,1011.04
2019-01-18T06:24:08.722Z,1010.98
2019-01-18T06:25:08.827Z,1010.99
2019-01-18T06:26:08.696Z,1010.98
2019-01-18T06:27:08.685Z,1010.99
2019-01-18T06:28:18.006Z,1010.98
2019-01-18T06:29:08.662Z,1010.99
2019-01-18T06:30:08.670Z,1010.95
2019-01-18T06:31:08.642Z,1011.08
2019-01-18T06:32:08.632Z,1011.10
2019-01-18T06:33:08.617Z,1011.11
2019-01-18T06:34:08.609Z,1011.08
2019-01-18T06:35:08.627Z,1011.09
2019-01-18T06:36:08.583Z,1011.11
2019-01-18T06:37:08.576Z,1011.09
2019-01-18T06:38:08.562Z,1011.12
2019-01-18T06:39:08.550Z,1011.09
2019-01-18T06:40:08.576Z,1011.08
2019-01-18T06:41:08.528Z,1011.12
2019-01-18T06:43:07.619Z,1011.15
2019-01-18T06:44:07.606Z,1011.16
2019-01-18T06:45:07.588Z,1011.21
2019-01-18T06:46:07.597Z,1011.14
2019-01-18T06:47:07.567Z,1011.18
2019-01-18T06:48:07.555Z,1011.28
2019-01-18T06:49:07.545Z,1011.30
2019-01-18T06:50:07.537Z,1011.34
2019-01-18T06:51:07.546Z,1011.30
2019-01-18T06:52:07.512Z,1011.33
2019-01-18T06:53:07.500Z,1011.35
2019-01-18T06:54:07.489Z,1011.38
2019-01-18T06:55:07.479Z,1011.37
2019-01-18T06:56:07.487Z,1011.38
2019-01-18T06:57:07.455Z,1011.38
2019-01-18T06:58:07.450Z,1011.38
2019-01-18T06:59:07.436Z,1011.38
2019-01-18T07:00:07.422Z,1011.40
2019-01-18T07:01:08.615Z,1011.42
2019-01-18T07:02:07.413Z,1011.34
2019-01-18T07:03:07.391Z,1011.39
2019-01-18T07:04:07.380Z,1011.43
2019-01-18T07:05:07.447Z,1011.43
2019-01-18T07:06:07.377Z,1011.46
2019-01-18T07:07:07.346Z,1011.49
2019-01-18T07:08:07.336Z,1011.48
2019-01-18T07:09:07.324Z,1011.51
2019-01-18T07:10:07.315Z,1011.51
2019-01-18T07:11:07.322Z,1011.58
2019-01-18T07:12:07.291Z,1011.59
2019-01-18T07:13:07.280Z,1011.68
2019-01-18T07:14:07.275Z,1011.65
2019-01-18T07:15:07.266Z,1011.66
2019-01-18T07:16:07.285Z,1011.70
2019-01-18T07:17:07.237Z,1011.72
2019-01-18T07:18:07.225Z,1011.77
2019-01-18T07:19:15.578Z,1011.82
2019-01-18T07:20:07.222Z,1011.80
2019-01-18T07:21:07.194Z,1011.80
2019-01-18T07:22:07.203Z,1011.85
2019-01-18T07:23:07.171Z,1011.89
2019-01-18T07:24:07.159Z,1011.92
2019-01-18T07:25:07.150Z,1011.96
2019-01-18T07:26:07.140Z,1011.99
2019-01-18T07:27:07.150Z,1012.01
2019-01-18T07:28:07.115Z,1011.98
2019-01-18T07:29:07.105Z,1011.98
2019-01-18T07:30:07.094Z,1011.98
2019-01-18T07:31:07.086Z,1011.96
2019-01-18T07:32:07.152Z,1011.94
2019-01-18T07:33:07.060Z,1011.96
2019-01-18T07:34:07.051Z,1011.95
2019-01-18T07:35:08.469Z,1011.97
2019-01-18T07:36:07.034Z,1011.96
2019-01-18T07:37:07.037Z,1011.95
2019-01-18T07:38:07.006Z,1011.94
2019-01-18T07:39:06.994Z,1011.94
2019-01-18T07:40:06.984Z,1011.97
2019-01-18T07:41:06.976Z,1011.96
2019-01-18T07:42:06.982Z,1011.93
2019-01-18T07:43:06.952Z,1011.95
2019-01-18T07:44:06.940Z,1011.99
2019-01-18T07:45:06.930Z,1011.99
2019-01-18T07:46:06.960Z,1012.01
2019-01-18T07:47:06.943Z,1011.98
2019-01-18T07:48:06.900Z,1012.03
2019-01-18T07:49:06.888Z,1012.02
2019-01-18T07:50:06.877Z,1012.07
2019-01-18T07:51:06.865Z,1012.08
2019-01-18T07:52:06.854Z,1012.07
2019-01-18T07:53:06.866Z,1012.09
2019-01-18T07:54:06.832Z,1012.08
2019-01-18T07:55:06.820Z,1012.11
2019-01-18T07:56:06.814Z,1012.14
2019-01-18T07:57:06.801Z,1012.14
2019-01-18T07:58:06.807Z,1012.18
2019-01-18T07:59:06.777Z,1012.17
2019-01-18T08:00:06.765Z,1012.14
2019-01-18T08:01:06.754Z,1012.18
2019-01-18T08:02:06.756Z,1012.23
2019-01-18T08:03:06.758Z,1012.24
2019-01-18T08:04:06.721Z,1012.27
2019-01-18T08:05:06.711Z,1012.28
2019-01-18T08:06:06.702Z,1012.28
2019-01-18T08:07:06.687Z,1012.31
2019-01-18T08:08:06.702Z,1012.33
2019-01-18T08:09:06.667Z,1012.31
2019-01-18T08:10:07.634Z,1012.38
2019-01-18T08:11:06.646Z,1012.32
2019-01-18T08:12:06.643Z,1012.33
2019-01-18T08:13:07.632Z,1012.35
2019-01-18T08:14:06.613Z,1012.37
2019-01-18T08:15:06.601Z,1012.31
2019-01-18T08:16:06.591Z,1012.31
2019-01-18T08:17:06.578Z,1012.35
2019-01-18T08:18:06.614Z,1012.42
2019-01-18T08:19:06.560Z,1012.43
2019-01-18T08:20:06.545Z,1012.45
2019-01-18T08:21:06.535Z,1012.45
2019-01-18T08:22:06.526Z,1012.55
2019-01-18T08:23:06.514Z,1012.52
2019-01-18T08:24:06.520Z,1012.59
2019-01-18T08:25:06.489Z,1012.56
2019-01-18T08:26:06.478Z,1012.62
2019-01-18T08:27:06.476Z,1012.63
2019-01-18T08:28:06.456Z,1012.62
2019-01-18T08:29:06.479Z,1012.63
2019-01-18T08:30:06.436Z,1012.65
2019-01-18T08:31:06.423Z,1012.56
2019-01-18T08:32:06.412Z,1012.66
2019-01-18T08:33:06.402Z,1012.67
2019-01-18T08:34:06.411Z,1012.63
2019-01-18T08:35:06.382Z,1012.65
2019-01-18T08:36:06.368Z,1012.63
2019-01-18T08:37:06.359Z,1012.73
2019-01-18T08:38:06.349Z,1012.72
2019-01-18T08:39:06.355Z,1012.70
2019-01-18T08:40:06.333Z,1012.74
2019-01-18T08:41:06.326Z,1012.78
2019-01-18T08:42:06.304Z,1012.82
2019-01-18T08:43:06.291Z,1012.83
2019-01-18T08:44:06.303Z,1012.80
2019-01-18T08:45:06.273Z,1012.85
2019-01-18T08:46:06.270Z,1012.82
2019-01-18T08:47:06.251Z,1012.86
2019-01-18T08:48:06.241Z,1012.84
2019-01-18T08:49:06.246Z,1012.84
2019-01-18T08:50:06.214Z,1012.84
2019-01-18T08:51:06.206Z,1012.83
2019-01-18T08:52:06.239Z,1012.82
2019-01-18T08:53:06.181Z,1012.77
2019-01-18T08:54:06.200Z,1012.79
2019-01-18T08:55:06.161Z,1012.83
2019-01-18T08:56:06.168Z,1012.84
2019-01-18T08:57:06.188Z,1012.80
2019-01-18T08:58:06.127Z,1012.82
2019-01-18T08:59:06.120Z,1012.89
2019-01-18T09:00:06.129Z,1012.90
2019-01-18T09:01:06.094Z,1012.91
2019-01-18T09:02:06.084Z,1012.94
2019-01-18T09:03:06.105Z,1012.94
2019-01-18T09:04:06.063Z,1012.93
2019-01-18T09:05:06.080Z,1012.89
2019-01-18T09:06:06.042Z,1012.92
2019-01-18T09:07:06.030Z,1012.91
2019-01-18T09:08:06.020Z,1012.93
2019-01-18T09:09:06.010Z,1012.90
2019-01-18T09:10:06.018Z,1012.90
2019-01-18T09:11:05.988Z,1012.92
2019-01-18T09:12:05.976Z,1012.95
2019-01-18T09:13:05.967Z,1012.93
2019-01-18T09:14:05.952Z,1012.94
2019-01-18T09:15:05.966Z,1012.98
2019-01-18T09:16:05.931Z,1012.95
2019-01-18T09:17:05.918Z,1012.94
2019-01-18T09:18:05.913Z,1012.98
2019-01-18T09:19:05.898Z,1013.00
2019-01-18T09:20:05.908Z,1012.95
2019-01-18T09:21:05.876Z,1013.03
2019-01-18T09:22:05.865Z,1013.03
2019-01-18T09:23:05.853Z,1013.01
2019-01-18T09:24:05.841Z,1013.04
2019-01-18T09:25:05.867Z,1013.02
2019-01-18T09:26:05.820Z,1013.05
2019-01-18T09:27:05.815Z,1013.15
2019-01-18T09:28:05.799Z,1013.19
2019-01-18T09:29:05.788Z,1013.14
2019-01-18T09:30:05.777Z,1013.17
2019-01-18T09:31:05.785Z,1013.13
2019-01-18T09:32:05.758Z,1013.15
2019-01-18T09:33:05.744Z,1013.14
2019-01-18T09:34:05.731Z,1013.12
2019-01-18T09:35:05.733Z,1013.05
2019-01-18T09:36:05.730Z,1013.07
2019-01-18T09:37:05.707Z,1013.09
2019-01-18T09:38:05.689Z,1013.13
2019-01-18T09:39:05.682Z,1013.16
2019-01-18T09:40:05.666Z,1013.22
2019-01-18T09:41:05.675Z,1013.19
2019-01-18T09:42:05.646Z,1013.17
2019-01-18T09:43:05.633Z,1013.19
2019-01-18T09:44:05.621Z,1013.15
2019-01-18T09:45:05.612Z,1013.24
2019-01-18T09:46:13.814Z,1013.30
2019-01-18T09:47:05.588Z,1013.26
2019-01-18T09:48:05.578Z,1013.29
2019-01-18T09:49:05.570Z,1013.32
2019-01-18T09:50:05.558Z,1013.36
2019-01-18T09:51:05.567Z,1013.37
2019-01-18T09:52:05.533Z,1013.34
2019-01-18T09:53:05.522Z,1013.31
2019-01-18T09:54:05.686Z,1013.39
2019-01-18T09:55:05.504Z,1013.28
2019-01-18T09:56:05.513Z,1013.33
2019-01-18T09:57:05.480Z,1013.33
2019-01-18T09:58:05.467Z,1013.37
2019-01-18T09:59:05.475Z,1013.42
2019-01-18T10:00:05.452Z,1013.42
2019-01-18T10:01:05.476Z,1013.46
2019-01-18T10:02:05.425Z,1013.45
2019-01-18T10:03:05.467Z,1013.48
2019-01-18T10:04:05.406Z,1013.38
2019-01-18T10:05:05.436Z,1013.37
2019-01-18T10:06:05.383Z,1013.40
2019-01-18T10:07:05.444Z,1013.42
2019-01-18T10:08:05.389Z,1013.41
2019-01-18T10:09:05.351Z,1013.33
2019-01-18T10:10:05.337Z,1013.26
2019-01-18T10:11:05.353Z,1013.31
2019-01-18T10:12:05.336Z,1013.38
2019-01-18T10:13:05.306Z,1013.39
2019-01-18T10:14:05.295Z,1013.44
2019-01-18T10:15:05.285Z,1013.51
2019-01-18T10:16:05.272Z,1013.51
2019-01-18T10:17:05.285Z,1013.57
2019-01-18T10:18:05.428Z,1013.52
2019-01-18T10:19:05.244Z,1013.45
2019-01-18T10:20:05.230Z,1013.47
2019-01-18T10:21:05.422Z,1013.45
2019-01-18T10:22:05.229Z,1013.39
2019-01-18T10:23:05.198Z,1013.44
2019-01-18T10:24:05.189Z,1013.48
2019-01-18T10:25:05.224Z,1013.53
2019-01-18T10:26:05.166Z,1013.54
2019-01-18T10:27:05.184Z,1013.48
2019-01-18T10:28:05.147Z,1013.51
2019-01-18T10:29:05.134Z,1013.49
2019-01-18T10:30:05.124Z,1013.54
2019-01-18T10:31:05.111Z,1013.54
2019-01-18T10:32:05.195Z,1013.54
2019-01-18T10:33:05.095Z,1013.58
2019-01-18T10:34:05.080Z,1013.61
2019-01-18T10:35:05.065Z,1013.63
2019-01-18T10:36:05.061Z,1013.57
2019-01-18T10:37:05.054Z,1013.62
2019-01-18T10:38:05.061Z,1013.59
2019-01-18T10:39:05.022Z,1013.61
2019-01-18T10:40:05.015Z,1013.59
2019-01-18T10:41:05.001Z,1013.61
2019-01-18T10:42:04.993Z,1013.59
2019-01-18T10:43:05.002Z,1013.64
2019-01-18T10:44:06.022Z,1013.58
2019-01-18T10:45:04.957Z,1013.55
2019-01-18T10:46:04.945Z,1013.59
2019-01-18T10:47:04.934Z,1013.59
2019-01-18T10:48:04.944Z,1013.52
2019-01-18T10:49:04.911Z,1013.58
2019-01-18T10:50:04.902Z,1013.61
2019-01-18T10:51:04.891Z,1013.62
2019-01-18T10:52:04.953Z,1013.62
2019-01-18T10:53:04.921Z,1013.68
2019-01-18T10:54:04.857Z,1013.64
2019-01-18T10:55:04.846Z,1013.67
2019-01-18T10:56:04.834Z,1013.68
2019-01-18T10:57:04.825Z,1013.74
2019-01-18T10:58:04.834Z,1013.66
2019-01-18T10:59:04.803Z,1013.63
2019-01-18T11:00:04.804Z,1013.67
2019-01-18T11:01:04.783Z,1013.59
2019-01-18T11:02:07.298Z,1013.63
2019-01-18T11:03:04.782Z,1013.62
2019-01-18T11:04:04.749Z,1013.62
2019-01-18T11:05:04.739Z,1013.62
2019-01-18T11:06:04.726Z,1013.61
2019-01-18T11:07:04.712Z,1013.58
2019-01-18T11:08:04.721Z,1013.52
2019-01-18T11:09:04.694Z,1013.58
2019-01-18T11:10:04.711Z,1013.54
2019-01-18T11:11:04.668Z,1013.56
2019-01-18T11:12:04.658Z,1013.53
2019-01-18T11:13:04.666Z,1013.54
2019-01-18T11:14:04.636Z,1013.54
2019-01-18T11:15:12.874Z,1013.50
2019-01-18T11:16:04.612Z,1013.50
2019-01-18T11:17:12.892Z,1013.53
2019-01-18T11:18:04.626Z,1013.56
2019-01-18T11:19:04.746Z,1013.52
2019-01-18T11:20:04.669Z,1013.55
2019-01-18T11:21:04.565Z,1013.56
2019-01-18T11:22:04.619Z,1013.49
2019-01-18T11:23:04.536Z,1013.53
2019-01-18T11:24:04.546Z,1013.48
2019-01-18T11:25:04.512Z,1013.52
2019-01-18T11:26:04.502Z,1013.47
2019-01-18T11:27:04.496Z,1013.47
2019-01-18T11:28:04.483Z,1013.39
2019-01-18T11:29:04.493Z,1013.47
2019-01-18T11:30:04.465Z,1013.42
2019-01-18T11:31:04.448Z,1013.42
2019-01-18T11:32:04.436Z,1013.39
2019-01-18T11:33:04.427Z,1013.38
2019-01-18T11:34:04.433Z,1013.35
2019-01-18T11:35:04.408Z,1013.35
2019-01-18T11:36:04.394Z,1013.34
2019-01-18T11:37:04.398Z,1013.34
2019-01-18T11:38:04.373Z,1013.23
2019-01-18T11:39:04.572Z,1013.28
2019-01-18T11:40:04.350Z,1013.31
2019-01-18T11:41:04.342Z,1013.29
2019-01-18T11:42:05.436Z,1013.28
2019-01-18T11:43:04.314Z,1013.27
2019-01-18T11:44:04.323Z,1013.28
2019-01-18T11:45:04.293Z,1013.24
2019-01-18T11:46:04.283Z,1013.29
2019-01-18T11:47:04.276Z,1013.27
2019-01-18T11:48:04.260Z,1013.35
2019-01-18T11:49:04.268Z,1013.29
2019-01-18T11:50:04.240Z,1013.22
2019-01-18T11:51:04.226Z,1013.26
2019-01-18T11:52:04.215Z,1013.25
2019-01-18T11:53:04.204Z,1013.18
2019-01-18T11:54:04.215Z,1013.22
2019-01-18T11:55:04.182Z,1013.22
2019-01-18T11:56:04.172Z,1013.27
2019-01-18T11:57:04.160Z,1013.22
2019-01-18T11:58:04.150Z,1013.30
2019-01-18T11:59:04.160Z,1013.35
2019-01-18T12:00:04.129Z,1013.33
2019-01-18T12:01:04.116Z,1013.30
2019-01-18T12:02:04.106Z,1013.27
2019-01-18T12:03:04.095Z,1013.33
2019-01-18T12:04:04.102Z,1013.31
2019-01-18T12:05:04.072Z,1013.23
2019-01-18T12:06:04.060Z,1013.22